sensor_id;sensor_type;location;lat;lon;timestamp;P1;durP1;ratioP1;P2;durP2;ratioP2
73779;SDS011;62093;37.614;15.072;2023-01-19T00:01:56;7.22;;;2.58;;
73779;SDS011;62093;37.614;15.072;2023-01-19T00:04:23;8.35;;;2.28;;
73779;SDS011;62093;37.614;15.072;2023-01-19T00:06:49;8.93;;;2.10;;
73779;SDS011;62093;37.614;15.072;2023-01-19T00:09:15;6.72;;;2.35;;
73779;SDS011;62093;37.614;15.072;2023-01-19T00:11:40;9.43;;;2.63;;
73779;SDS011;62093;37.614;15.072;2023-01-19T00:14:07;6.38;;;1.95;;
73779;SDS011;62093;37.614;15.072;2023-01-19T00:16:32;5.67;;;1.80;;
73779;SDS011;62093;37.614;15.072;2023-01-19T00:18:58;8.73;;;2.47;;
73779;SDS011;62093;37.614;15.072;2023-01-19T00:21:24;7.30;;;2.05;;
73779;SDS011;62093;37.614;15.072;2023-01-19T00:23:50;7.45;;;1.90;;
73779;SDS011;62093;37.614;15.072;2023-01-19T00:26:17;7.57;;;2.20;;
73779;SDS011;62093;37.614;15.072;2023-01-19T00:28:45;7.32;;;2.17;;
73779;SDS011;62093;37.614;15.072;2023-01-19T00:31:11;7.40;;;2.20;;
73779;SDS011;62093;37.614;15.072;2023-01-19T00:33:37;8.13;;;1.90;;
73779;SDS011;62093;37.614;15.072;2023-01-19T00:36:03;7.43;;;2.30;;
73779;SDS011;62093;37.614;15.072;2023-01-19T00:38:30;7.47;;;2.27;;
73779;SDS011;62093;37.614;15.072;2023-01-19T00:40:56;6.70;;;2.10;;
73779;SDS011;62093;37.614;15.072;2023-01-19T00:43:22;7.97;;;1.77;;
73779;SDS011;62093;37.614;15.072;2023-01-19T00:45:48;5.80;;;1.80;;
73779;SDS011;62093;37.614;15.072;2023-01-19T00:48:14;7.00;;;2.08;;
73779;SDS011;62093;37.614;15.072;2023-01-19T00:50:40;8.57;;;1.90;;
73779;SDS011;62093;37.614;15.072;2023-01-19T00:53:06;7.40;;;1.90;;
73779;SDS011;62093;37.614;15.072;2023-01-19T00:55:35;6.13;;;1.83;;
73779;SDS011;62093;37.614;15.072;2023-01-19T00:58:01;6.20;;;2.15;;
73779;SDS011;62093;37.614;15.072;2023-01-19T01:00:27;7.30;;;2.17;;
73779;SDS011;62093;37.614;15.072;2023-01-19T01:02:53;7.03;;;2.20;;
73779;SDS011;62093;37.614;15.072;2023-01-19T01:05:20;8.30;;;2.08;;
73779;SDS011;62093;37.614;15.072;2023-01-19T01:07:46;7.00;;;1.80;;
73779;SDS011;62093;37.614;15.072;2023-01-19T01:12:44;7.30;;;1.80;;
73779;SDS011;62093;37.614;15.072;2023-01-19T01:15:11;7.80;;;2.13;;
73779;SDS011;62093;37.614;15.072;2023-01-19T01:17:39;6.10;;;2.38;;
73779;SDS011;62093;37.614;15.072;2023-01-19T01:20:19;6.32;;;1.60;;
73779;SDS011;62093;37.614;15.072;2023-01-19T01:22:48;7.25;;;2.13;;
73779;SDS011;62093;37.614;15.072;2023-01-19T01:25:17;6.37;;;2.03;;
73779;SDS011;62093;37.614;15.072;2023-01-19T01:27:47;5.97;;;2.08;;
73779;SDS011;62093;37.614;15.072;2023-01-19T01:30:13;6.95;;;2.00;;
73779;SDS011;62093;37.614;15.072;2023-01-19T01:32:40;6.28;;;1.60;;
73779;SDS011;62093;37.614;15.072;2023-01-19T01:35:07;7.22;;;2.00;;
73779;SDS011;62093;37.614;15.072;2023-01-19T01:37:34;5.87;;;1.80;;
73779;SDS011;62093;37.614;15.072;2023-01-19T01:40:01;6.63;;;2.00;;
73779;SDS011;62093;37.614;15.072;2023-01-19T01:42:29;7.32;;;2.00;;
73779;SDS011;62093;37.614;15.072;2023-01-19T01:44:57;5.57;;;1.70;;
73779;SDS011;62093;37.614;15.072;2023-01-19T01:47:33;6.20;;;1.77;;
73779;SDS011;62093;37.614;15.072;2023-01-19T01:50:19;6.07;;;1.77;;
73779;SDS011;62093;37.614;15.072;2023-01-19T01:52:50;5.22;;;1.70;;
73779;SDS011;62093;37.614;15.072;2023-01-19T01:55:20;6.07;;;1.65;;
73779;SDS011;62093;37.614;15.072;2023-01-19T01:57:51;5.88;;;1.60;;
73779;SDS011;62093;37.614;15.072;2023-01-19T02:00:22;6.30;;;2.08;;
73779;SDS011;62093;37.614;15.072;2023-01-19T02:02:53;6.47;;;1.50;;
73779;SDS011;62093;37.614;15.072;2023-01-19T02:08:01;6.40;;;2.00;;
73779;SDS011;62093;37.614;15.072;2023-01-19T02:10:50;4.80;;;1.52;;
73779;SDS011;62093;37.614;15.072;2023-01-19T02:13:38;4.60;;;1.58;;
73779;SDS011;62093;37.614;15.072;2023-01-19T02:16:08;5.47;;;1.70;;
73779;SDS011;62093;37.614;15.072;2023-01-19T02:18:35;5.85;;;1.90;;
73779;SDS011;62093;37.614;15.072;2023-01-19T02:23:41;6.45;;;1.70;;
73779;SDS011;62093;37.614;15.072;2023-01-19T02:26:11;5.20;;;1.83;;
73779;SDS011;62093;37.614;15.072;2023-01-19T02:28:41;6.60;;;1.63;;
73779;SDS011;62093;37.614;15.072;2023-01-19T02:31:10;4.47;;;1.60;;
73779;SDS011;62093;37.614;15.072;2023-01-19T02:33:37;6.32;;;1.80;;
73779;SDS011;62093;37.614;15.072;2023-01-19T02:36:03;5.72;;;1.77;;
73779;SDS011;62093;37.614;15.072;2023-01-19T02:38:32;5.18;;;1.85;;
73779;SDS011;62093;37.614;15.072;2023-01-19T02:40:59;5.70;;;1.77;;
73779;SDS011;62093;37.614;15.072;2023-01-19T02:43:27;6.88;;;1.50;;
73779;SDS011;62093;37.614;15.072;2023-01-19T02:45:56;5.55;;;1.73;;
73779;SDS011;62093;37.614;15.072;2023-01-19T02:48:22;4.10;;;1.50;;
73779;SDS011;62093;37.614;15.072;2023-01-19T02:50:50;5.50;;;1.75;;
73779;SDS011;62093;37.614;15.072;2023-01-19T02:55:58;5.22;;;1.70;;
73779;SDS011;62093;37.614;15.072;2023-01-19T03:07:55;4.83;;;1.70;;
73779;SDS011;62093;37.614;15.072;2023-01-19T03:16:05;5.05;;;1.45;;
73779;SDS011;62093;37.614;15.072;2023-01-19T03:18:54;5.85;;;1.50;;
73779;SDS011;62093;37.614;15.072;2023-01-19T03:21:24;6.07;;;1.80;;
73779;SDS011;62093;37.614;15.072;2023-01-19T03:23:51;4.82;;;1.50;;
73779;SDS011;62093;37.614;15.072;2023-01-19T03:26:24;6.28;;;1.88;;
73779;SDS011;62093;37.614;15.072;2023-01-19T03:28:54;4.93;;;1.40;;
73779;SDS011;62093;37.614;15.072;2023-01-19T03:31:23;6.47;;;2.00;;
73779;SDS011;62093;37.614;15.072;2023-01-19T03:33:52;4.77;;;1.90;;
73779;SDS011;62093;37.614;15.072;2023-01-19T03:36:24;5.20;;;1.65;;
73779;SDS011;62093;37.614;15.072;2023-01-19T03:38:56;5.65;;;1.75;;
73779;SDS011;62093;37.614;15.072;2023-01-19T03:41:24;6.00;;;1.60;;
73779;SDS011;62093;37.614;15.072;2023-01-19T03:43:53;5.15;;;1.70;;
73779;SDS011;62093;37.614;15.072;2023-01-19T03:46:20;6.70;;;1.50;;
73779;SDS011;62093;37.614;15.072;2023-01-19T03:48:47;4.80;;;1.40;;
73779;SDS011;62093;37.614;15.072;2023-01-19T03:51:14;5.57;;;1.33;;
73779;SDS011;62093;37.614;15.072;2023-01-19T03:53:41;6.05;;;1.60;;
73779;SDS011;62093;37.614;15.072;2023-01-19T03:56:10;4.43;;;1.40;;
73779;SDS011;62093;37.614;15.072;2023-01-19T03:58:42;6.37;;;1.47;;
73779;SDS011;62093;37.614;15.072;2023-01-19T04:01:08;4.40;;;1.35;;
73779;SDS011;62093;37.614;15.072;2023-01-19T04:03:34;5.00;;;1.30;;
73779;SDS011;62093;37.614;15.072;2023-01-19T04:06:00;5.05;;;1.27;;
73779;SDS011;62093;37.614;15.072;2023-01-19T04:08:27;5.03;;;1.35;;
73779;SDS011;62093;37.614;15.072;2023-01-19T04:10:53;4.73;;;1.57;;
73779;SDS011;62093;37.614;15.072;2023-01-19T04:13:19;5.15;;;1.58;;
73779;SDS011;62093;37.614;15.072;2023-01-19T04:15:45;5.68;;;1.52;;
73779;SDS011;62093;37.614;15.072;2023-01-19T04:18:11;4.60;;;1.52;;
73779;SDS011;62093;37.614;15.072;2023-01-19T04:20:37;4.33;;;1.50;;
73779;SDS011;62093;37.614;15.072;2023-01-19T04:23:03;4.30;;;1.50;;
73779;SDS011;62093;37.614;15.072;2023-01-19T04:25:29;4.85;;;1.40;;
73779;SDS011;62093;37.614;15.072;2023-01-19T04:27:55;5.13;;;1.30;;
73779;SDS011;62093;37.614;15.072;2023-01-19T04:30:24;4.80;;;1.53;;
73779;SDS011;62093;37.614;15.072;2023-01-19T04:32:50;6.18;;;1.63;;
73779;SDS011;62093;37.614;15.072;2023-01-19T04:35:17;4.22;;;1.50;;
73779;SDS011;62093;37.614;15.072;2023-01-19T04:37:43;5.63;;;1.73;;
73779;SDS011;62093;37.614;15.072;2023-01-19T04:40:09;4.43;;;1.35;;
73779;SDS011;62093;37.614;15.072;2023-01-19T04:42:36;5.57;;;2.00;;
73779;SDS011;62093;37.614;15.072;2023-01-19T04:45:02;4.80;;;1.45;;
73779;SDS011;62093;37.614;15.072;2023-01-19T04:47:28;4.25;;;1.45;;
73779;SDS011;62093;37.614;15.072;2023-01-19T04:49:54;5.00;;;1.50;;
73779;SDS011;62093;37.614;15.072;2023-01-19T04:52:20;5.90;;;1.90;;
73779;SDS011;62093;37.614;15.072;2023-01-19T04:54:46;4.13;;;1.50;;
73779;SDS011;62093;37.614;15.072;2023-01-19T04:57:12;4.55;;;1.67;;
73779;SDS011;62093;37.614;15.072;2023-01-19T04:59:38;5.18;;;1.17;;
73779;SDS011;62093;37.614;15.072;2023-01-19T05:02:04;5.10;;;1.50;;
73779;SDS011;62093;37.614;15.072;2023-01-19T05:04:30;4.10;;;1.33;;
73779;SDS011;62093;37.614;15.072;2023-01-19T05:06:57;5.10;;;1.50;;
73779;SDS011;62093;37.614;15.072;2023-01-19T05:09:23;4.55;;;1.27;;
73779;SDS011;62093;37.614;15.072;2023-01-19T05:11:50;4.07;;;1.40;;
73779;SDS011;62093;37.614;15.072;2023-01-19T05:14:16;5.47;;;1.70;;
73779;SDS011;62093;37.614;15.072;2023-01-19T05:16:42;4.43;;;1.40;;
73779;SDS011;62093;37.614;15.072;2023-01-19T05:19:08;4.45;;;1.20;;
73779;SDS011;62093;37.614;15.072;2023-01-19T05:21:34;5.22;;;1.40;;
73779;SDS011;62093;37.614;15.072;2023-01-19T05:24:01;3.58;;;1.25;;
73779;SDS011;62093;37.614;15.072;2023-01-19T05:26:27;4.82;;;1.40;;
73779;SDS011;62093;37.614;15.072;2023-01-19T05:28:53;4.43;;;1.30;;
73779;SDS011;62093;37.614;15.072;2023-01-19T05:31:19;4.30;;;1.25;;
73779;SDS011;62093;37.614;15.072;2023-01-19T05:33:45;4.93;;;1.35;;
73779;SDS011;62093;37.614;15.072;2023-01-19T05:36:12;5.82;;;1.50;;
73779;SDS011;62093;37.614;15.072;2023-01-19T05:38:38;6.40;;;1.30;;
73779;SDS011;62093;37.614;15.072;2023-01-19T05:41:04;3.73;;;1.30;;
73779;SDS011;62093;37.614;15.072;2023-01-19T05:43:30;3.45;;;1.00;;
73779;SDS011;62093;37.614;15.072;2023-01-19T05:45:56;4.35;;;1.35;;
73779;SDS011;62093;37.614;15.072;2023-01-19T05:48:23;4.22;;;1.30;;
73779;SDS011;62093;37.614;15.072;2023-01-19T05:50:49;4.77;;;1.40;;
73779;SDS011;62093;37.614;15.072;2023-01-19T05:53:15;5.05;;;1.50;;
73779;SDS011;62093;37.614;15.072;2023-01-19T05:55:41;3.90;;;1.13;;
73779;SDS011;62093;37.614;15.072;2023-01-19T05:58:07;3.60;;;1.38;;
73779;SDS011;62093;37.614;15.072;2023-01-19T06:00:33;3.60;;;1.40;;
73779;SDS011;62093;37.614;15.072;2023-01-19T06:02:59;4.28;;;1.27;;
73779;SDS011;62093;37.614;15.072;2023-01-19T06:05:26;3.83;;;1.20;;
73779;SDS011;62093;37.614;15.072;2023-01-19T06:07:54;5.05;;;1.38;;
73779;SDS011;62093;37.614;15.072;2023-01-19T06:10:21;4.47;;;1.30;;
73779;SDS011;62093;37.614;15.072;2023-01-19T06:12:47;5.23;;;1.50;;
73779;SDS011;62093;37.614;15.072;2023-01-19T06:15:14;4.47;;;1.33;;
73779;SDS011;62093;37.614;15.072;2023-01-19T06:17:40;4.35;;;1.20;;
73779;SDS011;62093;37.614;15.072;2023-01-19T06:20:07;4.03;;;1.38;;
73779;SDS011;62093;37.614;15.072;2023-01-19T06:22:35;3.83;;;1.30;;
73779;SDS011;62093;37.614;15.072;2023-01-19T06:25:01;4.85;;;1.10;;
73779;SDS011;62093;37.614;15.072;2023-01-19T06:27:27;4.88;;;1.08;;
73779;SDS011;62093;37.614;15.072;2023-01-19T06:29:53;5.00;;;1.30;;
73779;SDS011;62093;37.614;15.072;2023-01-19T06:32:19;3.50;;;1.30;;
73779;SDS011;62093;37.614;15.072;2023-01-19T06:34:45;4.03;;;1.17;;
73779;SDS011;62093;37.614;15.072;2023-01-19T06:37:13;3.67;;;1.40;;
73779;SDS011;62093;37.614;15.072;2023-01-19T06:39:41;5.18;;;1.20;;
73779;SDS011;62093;37.614;15.072;2023-01-19T06:42:09;3.92;;;1.30;;
73779;SDS011;62093;37.614;15.072;2023-01-19T06:44:36;5.00;;;1.25;;
73779;SDS011;62093;37.614;15.072;2023-01-19T06:47:02;5.13;;;1.00;;
73779;SDS011;62093;37.614;15.072;2023-01-19T06:49:28;4.80;;;1.20;;
73779;SDS011;62093;37.614;15.072;2023-01-19T06:51:54;4.57;;;1.38;;
73779;SDS011;62093;37.614;15.072;2023-01-19T06:54:20;4.07;;;1.48;;
73779;SDS011;62093;37.614;15.072;2023-01-19T06:56:47;5.87;;;1.40;;
73779;SDS011;62093;37.614;15.072;2023-01-19T06:59:13;4.25;;;1.35;;
73779;SDS011;62093;37.614;15.072;2023-01-19T07:01:40;4.15;;;1.10;;
73779;SDS011;62093;37.614;15.072;2023-01-19T07:04:06;3.83;;;1.35;;
73779;SDS011;62093;37.614;15.072;2023-01-19T07:06:32;4.68;;;1.20;;
73779;SDS011;62093;37.614;15.072;2023-01-19T07:08:58;3.83;;;1.07;;
73779;SDS011;62093;37.614;15.072;2023-01-19T07:11:25;4.75;;;1.25;;
73779;SDS011;62093;37.614;15.072;2023-01-19T07:13:52;5.78;;;1.42;;
73779;SDS011;62093;37.614;15.072;2023-01-19T07:16:19;4.85;;;1.05;;
73779;SDS011;62093;37.614;15.072;2023-01-19T07:18:46;4.35;;;1.13;;
73779;SDS011;62093;37.614;15.072;2023-01-19T07:21:14;4.53;;;1.10;;
73779;SDS011;62093;37.614;15.072;2023-01-19T07:23:40;4.07;;;1.10;;
73779;SDS011;62093;37.614;15.072;2023-01-19T07:26:08;3.78;;;1.30;;
73779;SDS011;62093;37.614;15.072;2023-01-19T07:28:35;4.15;;;1.27;;
73779;SDS011;62093;37.614;15.072;2023-01-19T07:31:02;4.35;;;1.40;;
73779;SDS011;62093;37.614;15.072;2023-01-19T07:33:29;4.13;;;1.10;;
73779;SDS011;62093;37.614;15.072;2023-01-19T07:35:55;4.00;;;1.30;;
73779;SDS011;62093;37.614;15.072;2023-01-19T07:38:21;4.30;;;1.50;;
73779;SDS011;62093;37.614;15.072;2023-01-19T07:40:47;4.85;;;1.27;;
73779;SDS011;62093;37.614;15.072;2023-01-19T07:43:14;3.67;;;1.10;;
73779;SDS011;62093;37.614;15.072;2023-01-19T07:45:41;5.13;;;1.20;;
73779;SDS011;62093;37.614;15.072;2023-01-19T07:48:08;4.35;;;1.13;;
73779;SDS011;62093;37.614;15.072;2023-01-19T07:50:34;3.92;;;1.02;;
73779;SDS011;62093;37.614;15.072;2023-01-19T07:53:07;4.38;;;1.30;;
73779;SDS011;62093;37.614;15.072;2023-01-19T07:55:34;4.33;;;1.10;;
73779;SDS011;62093;37.614;15.072;2023-01-19T07:58:00;4.50;;;1.40;;
73779;SDS011;62093;37.614;15.072;2023-01-19T08:00:28;4.78;;;1.23;;
73779;SDS011;62093;37.614;15.072;2023-01-19T08:02:57;3.28;;;1.10;;
73779;SDS011;62093;37.614;15.072;2023-01-19T08:05:28;3.78;;;1.10;;
73779;SDS011;62093;37.614;15.072;2023-01-19T08:07:56;4.67;;;1.37;;
73779;SDS011;62093;37.614;15.072;2023-01-19T08:10:23;4.05;;;1.00;;
73779;SDS011;62093;37.614;15.072;2023-01-19T08:12:52;3.88;;;1.55;;
73779;SDS011;62093;37.614;15.072;2023-01-19T08:15:18;4.68;;;1.30;;
73779;SDS011;62093;37.614;15.072;2023-01-19T08:17:53;3.92;;;1.48;;
73779;SDS011;62093;37.614;15.072;2023-01-19T08:20:23;4.40;;;1.23;;
73779;SDS011;62093;37.614;15.072;2023-01-19T08:22:50;4.18;;;1.25;;
73779;SDS011;62093;37.614;15.072;2023-01-19T08:25:24;4.03;;;1.40;;
73779;SDS011;62093;37.614;15.072;2023-01-19T08:28:01;4.45;;;1.10;;
73779;SDS011;62093;37.614;15.072;2023-01-19T08:30:28;3.28;;;1.27;;
73779;SDS011;62093;37.614;15.072;2023-01-19T08:32:55;3.37;;;1.00;;
73779;SDS011;62093;37.614;15.072;2023-01-19T08:35:32;3.83;;;1.45;;
73779;SDS011;62093;37.614;15.072;2023-01-19T08:38:01;3.30;;;1.30;;
73779;SDS011;62093;37.614;15.072;2023-01-19T08:40:32;3.47;;;0.98;;
73779;SDS011;62093;37.614;15.072;2023-01-19T08:42:59;3.25;;;1.20;;
73779;SDS011;62093;37.614;15.072;2023-01-19T08:45:29;4.13;;;1.13;;
73779;SDS011;62093;37.614;15.072;2023-01-19T08:47:56;3.38;;;1.10;;
73779;SDS011;62093;37.614;15.072;2023-01-19T08:50:25;3.95;;;1.10;;
73779;SDS011;62093;37.614;15.072;2023-01-19T08:52:59;4.70;;;1.52;;
73779;SDS011;62093;37.614;15.072;2023-01-19T08:55:27;3.78;;;1.20;;
73779;SDS011;62093;37.614;15.072;2023-01-19T08:57:54;3.20;;;1.23;;
73779;SDS011;62093;37.614;15.072;2023-01-19T09:00:29;3.80;;;1.20;;
73779;SDS011;62093;37.614;15.072;2023-01-19T09:02:57;4.38;;;1.23;;
73779;SDS011;62093;37.614;15.072;2023-01-19T09:05:26;3.47;;;1.02;;
73779;SDS011;62093;37.614;15.072;2023-01-19T09:07:52;4.68;;;1.38;;
73779;SDS011;62093;37.614;15.072;2023-01-19T09:10:18;4.10;;;1.20;;
73779;SDS011;62093;37.614;15.072;2023-01-19T09:12:44;3.38;;;1.20;;
73779;SDS011;62093;37.614;15.072;2023-01-19T09:15:11;4.70;;;1.27;;
73779;SDS011;62093;37.614;15.072;2023-01-19T09:17:40;3.95;;;0.93;;
73779;SDS011;62093;37.614;15.072;2023-01-19T09:20:07;5.47;;;1.20;;
73779;SDS011;62093;37.614;15.072;2023-01-19T09:22:33;4.03;;;1.03;;
73779;SDS011;62093;37.614;15.072;2023-01-19T09:24:59;3.50;;;1.08;;
73779;SDS011;62093;37.614;15.072;2023-01-19T09:27:25;4.00;;;1.02;;
73779;SDS011;62093;37.614;15.072;2023-01-19T09:29:52;3.97;;;1.30;;
73779;SDS011;62093;37.614;15.072;2023-01-19T09:32:19;3.88;;;1.02;;
73779;SDS011;62093;37.614;15.072;2023-01-19T09:34:45;5.77;;;1.20;;
73779;SDS011;62093;37.614;15.072;2023-01-19T09:37:12;4.80;;;1.10;;
73779;SDS011;62093;37.614;15.072;2023-01-19T09:39:39;4.45;;;1.15;;
73779;SDS011;62093;37.614;15.072;2023-01-19T09:44:46;4.38;;;1.10;;
73779;SDS011;62093;37.614;15.072;2023-01-19T09:47:16;2.70;;;0.90;;
73779;SDS011;62093;37.614;15.072;2023-01-19T09:49:47;3.97;;;1.08;;
73779;SDS011;62093;37.614;15.072;2023-01-19T09:52:18;3.90;;;1.00;;
73779;SDS011;62093;37.614;15.072;2023-01-19T09:54:57;4.47;;;1.20;;
73779;SDS011;62093;37.614;15.072;2023-01-19T09:57:24;3.80;;;1.23;;
73779;SDS011;62093;37.614;15.072;2023-01-19T09:59:52;4.00;;;1.50;;
73779;SDS011;62093;37.614;15.072;2023-01-19T10:10:20;4.13;;;1.00;;
73779;SDS011;62093;37.614;15.072;2023-01-19T10:18:18;4.55;;;1.30;;
73779;SDS011;62093;37.614;15.072;2023-01-19T10:26:54;4.10;;;1.37;;
73779;SDS011;62093;37.614;15.072;2023-01-19T10:34:34;3.55;;;0.80;;
73779;SDS011;62093;37.614;15.072;2023-01-19T10:37:04;3.85;;;1.13;;
73779;SDS011;62093;37.614;15.072;2023-01-19T10:39:42;3.50;;;1.00;;
73779;SDS011;62093;37.614;15.072;2023-01-19T10:42:14;3.97;;;1.10;;
73779;SDS011;62093;37.614;15.072;2023-01-19T10:44:41;3.60;;;0.90;;
73779;SDS011;62093;37.614;15.072;2023-01-19T10:47:19;4.10;;;1.33;;
73779;SDS011;62093;37.614;15.072;2023-01-19T10:49:48;3.92;;;1.20;;
73779;SDS011;62093;37.614;15.072;2023-01-19T10:54:50;4.20;;;1.25;;
73779;SDS011;62093;37.614;15.072;2023-01-19T10:57:27;3.65;;;1.20;;
73779;SDS011;62093;37.614;15.072;2023-01-19T10:59:56;3.80;;;0.98;;
73779;SDS011;62093;37.614;15.072;2023-01-19T11:02:26;4.15;;;1.20;;
73779;SDS011;62093;37.614;15.072;2023-01-19T11:04:55;4.37;;;0.90;;
73779;SDS011;62093;37.614;15.072;2023-01-19T11:10:15;3.58;;;1.30;;
73779;SDS011;62093;37.614;15.072;2023-01-19T11:12:47;3.88;;;0.90;;
73779;SDS011;62093;37.614;15.072;2023-01-19T11:17:57;3.77;;;1.13;;
73779;SDS011;62093;37.614;15.072;2023-01-19T11:23:21;3.25;;;1.20;;
73779;SDS011;62093;37.614;15.072;2023-01-19T11:25:53;3.83;;;1.15;;
73779;SDS011;62093;37.614;15.072;2023-01-19T11:28:30;2.90;;;1.02;;
73779;SDS011;62093;37.614;15.072;2023-01-19T11:33:41;4.25;;;1.08;;
73779;SDS011;62093;37.614;15.072;2023-01-19T11:36:20;4.78;;;1.15;;
73779;SDS011;62093;37.614;15.072;2023-01-19T11:38:51;3.63;;;0.90;;
73779;SDS011;62093;37.614;15.072;2023-01-19T11:41:23;3.13;;;0.90;;
73779;SDS011;62093;37.614;15.072;2023-01-19T11:43:56;3.40;;;1.10;;
73779;SDS011;62093;37.614;15.072;2023-01-19T11:46:31;3.60;;;1.02;;
73779;SDS011;62093;37.614;15.072;2023-01-19T11:49:01;4.38;;;1.40;;
73779;SDS011;62093;37.614;15.072;2023-01-19T11:51:34;4.10;;;1.30;;
73779;SDS011;62093;37.614;15.072;2023-01-19T11:54:15;3.40;;;1.38;;
73779;SDS011;62093;37.614;15.072;2023-01-19T11:56:46;4.20;;;1.00;;
73779;SDS011;62093;37.614;15.072;2023-01-19T11:59:13;4.05;;;1.10;;
73779;SDS011;62093;37.614;15.072;2023-01-19T12:01:42;4.72;;;1.27;;
73779;SDS011;62093;37.614;15.072;2023-01-19T12:04:12;3.70;;;1.15;;
73779;SDS011;62093;37.614;15.072;2023-01-19T12:07:02;3.75;;;1.20;;
73779;SDS011;62093;37.614;15.072;2023-01-19T12:12:13;3.65;;;1.30;;
73779;SDS011;62093;37.614;15.072;2023-01-19T12:18:06;3.78;;;1.23;;
73779;SDS011;62093;37.614;15.072;2023-01-19T12:20:37;4.20;;;1.50;;
73779;SDS011;62093;37.614;15.072;2023-01-19T12:28:55;3.45;;;1.50;;
73779;SDS011;62093;37.614;15.072;2023-01-19T12:31:27;4.05;;;1.20;;
73779;SDS011;62093;37.614;15.072;2023-01-19T12:33:53;4.30;;;1.30;;
73779;SDS011;62093;37.614;15.072;2023-01-19T12:38:56;3.88;;;1.08;;
73779;SDS011;62093;37.614;15.072;2023-01-19T12:41:31;3.42;;;1.10;;
73779;SDS011;62093;37.614;15.072;2023-01-19T12:46:48;4.75;;;1.42;;
73779;SDS011;62093;37.614;15.072;2023-01-19T12:51:54;4.32;;;1.30;;
73779;SDS011;62093;37.614;15.072;2023-01-19T12:57:32;3.20;;;1.30;;
73779;SDS011;62093;37.614;15.072;2023-01-19T13:00:05;5.10;;;1.08;;
73779;SDS011;62093;37.614;15.072;2023-01-19T13:13:28;3.47;;;1.13;;
73779;SDS011;62093;37.614;15.072;2023-01-19T13:18:54;3.70;;;1.35;;
73779;SDS011;62093;37.614;15.072;2023-01-19T13:21:31;4.30;;;1.58;;
73779;SDS011;62093;37.614;15.072;2023-01-19T13:24:07;3.88;;;1.10;;
73779;SDS011;62093;37.614;15.072;2023-01-19T13:26:34;3.67;;;1.00;;
73779;SDS011;62093;37.614;15.072;2023-01-19T13:31:54;3.08;;;1.00;;
73779;SDS011;62093;37.614;15.072;2023-01-19T13:34:46;3.42;;;1.08;;
73779;SDS011;62093;37.614;15.072;2023-01-19T13:37:18;3.33;;;1.20;;
73779;SDS011;62093;37.614;15.072;2023-01-19T13:39:46;3.97;;;1.17;;
73779;SDS011;62093;37.614;15.072;2023-01-19T13:42:17;3.83;;;1.07;;
73779;SDS011;62093;37.614;15.072;2023-01-19T13:45:35;3.78;;;1.02;;
73779;SDS011;62093;37.614;15.072;2023-01-19T13:48:03;3.92;;;1.30;;
73779;SDS011;62093;37.614;15.072;2023-01-19T13:50:33;3.80;;;1.30;;
73779;SDS011;62093;37.614;15.072;2023-01-19T13:53:13;3.90;;;1.13;;
73779;SDS011;62093;37.614;15.072;2023-01-19T13:55:42;3.37;;;1.20;;
73779;SDS011;62093;37.614;15.072;2023-01-19T13:58:22;3.83;;;1.20;;
73779;SDS011;62093;37.614;15.072;2023-01-19T14:00:48;3.53;;;1.45;;
73779;SDS011;62093;37.614;15.072;2023-01-19T14:03:16;2.92;;;1.02;;
73779;SDS011;62093;37.614;15.072;2023-01-19T14:05:50;3.50;;;1.00;;
73779;SDS011;62093;37.614;15.072;2023-01-19T14:08:18;3.57;;;1.00;;
73779;SDS011;62093;37.614;15.072;2023-01-19T14:10:46;3.42;;;1.20;;
73779;SDS011;62093;37.614;15.072;2023-01-19T14:13:33;4.07;;;1.25;;
73779;SDS011;62093;37.614;15.072;2023-01-19T14:16:06;3.30;;;1.10;;
73779;SDS011;62093;37.614;15.072;2023-01-19T14:18:39;3.55;;;1.30;;
73779;SDS011;62093;37.614;15.072;2023-01-19T14:21:06;4.27;;;1.40;;
73779;SDS011;62093;37.614;15.072;2023-01-19T14:32:10;3.15;;;1.17;;
73779;SDS011;62093;37.614;15.072;2023-01-19T14:37:31;3.40;;;1.00;;
73779;SDS011;62093;37.614;15.072;2023-01-19T14:40:00;4.05;;;1.20;;
73779;SDS011;62093;37.614;15.072;2023-01-19T14:42:33;3.88;;;1.30;;
73779;SDS011;62093;37.614;15.072;2023-01-19T14:45:05;3.70;;;1.30;;
73779;SDS011;62093;37.614;15.072;2023-01-19T14:47:41;4.43;;;1.50;;
73779;SDS011;62093;37.614;15.072;2023-01-19T14:53:03;3.92;;;1.27;;
73779;SDS011;62093;37.614;15.072;2023-01-19T14:55:36;3.90;;;1.35;;
73779;SDS011;62093;37.614;15.072;2023-01-19T14:58:10;3.75;;;1.13;;
73779;SDS011;62093;37.614;15.072;2023-01-19T15:00:39;4.10;;;1.23;;
73779;SDS011;62093;37.614;15.072;2023-01-19T15:03:06;3.72;;;1.40;;
73779;SDS011;62093;37.614;15.072;2023-01-19T15:05:35;4.47;;;1.40;;
73779;SDS011;62093;37.614;15.072;2023-01-19T15:08:05;3.53;;;1.20;;
73779;SDS011;62093;37.614;15.072;2023-01-19T15:10:32;3.95;;;1.65;;
73779;SDS011;62093;37.614;15.072;2023-01-19T15:13:00;3.33;;;1.20;;
73779;SDS011;62093;37.614;15.072;2023-01-19T15:15:31;3.95;;;1.35;;
73779;SDS011;62093;37.614;15.072;2023-01-19T15:18:00;4.93;;;1.40;;
73779;SDS011;62093;37.614;15.072;2023-01-19T15:20:28;3.25;;;1.38;;
73779;SDS011;62093;37.614;15.072;2023-01-19T15:22:55;3.75;;;1.27;;
73779;SDS011;62093;37.614;15.072;2023-01-19T15:25:22;4.53;;;1.30;;
73779;SDS011;62093;37.614;15.072;2023-01-19T15:27:51;3.38;;;1.30;;
73779;SDS011;62093;37.614;15.072;2023-01-19T15:30:26;3.60;;;1.25;;
73779;SDS011;62093;37.614;15.072;2023-01-19T15:32:55;3.72;;;1.25;;
73779;SDS011;62093;37.614;15.072;2023-01-19T15:35:23;3.88;;;1.30;;
73779;SDS011;62093;37.614;15.072;2023-01-19T15:37:50;3.30;;;1.30;;
73779;SDS011;62093;37.614;15.072;2023-01-19T15:40:18;3.70;;;1.20;;
73779;SDS011;62093;37.614;15.072;2023-01-19T15:42:45;4.50;;;1.25;;
73779;SDS011;62093;37.614;15.072;2023-01-19T15:47:58;4.05;;;1.38;;
73779;SDS011;62093;37.614;15.072;2023-01-19T15:50:27;4.17;;;1.47;;
73779;SDS011;62093;37.614;15.072;2023-01-19T15:52:54;3.53;;;1.30;;
73779;SDS011;62093;37.614;15.072;2023-01-19T15:55:21;3.55;;;1.27;;
73779;SDS011;62093;37.614;15.072;2023-01-19T15:57:47;3.83;;;1.25;;
73779;SDS011;62093;37.614;15.072;2023-01-19T16:00:14;3.50;;;1.40;;
73779;SDS011;62093;37.614;15.072;2023-01-19T16:02:40;2.87;;;1.10;;
73779;SDS011;62093;37.614;15.072;2023-01-19T16:05:06;3.60;;;1.40;;
73779;SDS011;62093;37.614;15.072;2023-01-19T16:07:33;4.55;;;1.35;;
73779;SDS011;62093;37.614;15.072;2023-01-19T16:09:59;3.83;;;1.63;;
73779;SDS011;62093;37.614;15.072;2023-01-19T16:12:26;4.00;;;1.70;;
73779;SDS011;62093;37.614;15.072;2023-01-19T16:14:53;4.63;;;1.40;;
73779;SDS011;62093;37.614;15.072;2023-01-19T16:17:19;3.78;;;1.40;;
73779;SDS011;62093;37.614;15.072;2023-01-19T16:19:45;4.05;;;1.50;;
73779;SDS011;62093;37.614;15.072;2023-01-19T16:22:12;3.40;;;1.27;;
73779;SDS011;62093;37.614;15.072;2023-01-19T16:24:38;3.40;;;1.27;;
73779;SDS011;62093;37.614;15.072;2023-01-19T16:27:04;3.78;;;1.27;;
73779;SDS011;62093;37.614;15.072;2023-01-19T16:29:32;3.60;;;1.30;;
73779;SDS011;62093;37.614;15.072;2023-01-19T16:31:58;3.78;;;1.42;;
73779;SDS011;62093;37.614;15.072;2023-01-19T16:34:24;3.53;;;1.40;;
73779;SDS011;62093;37.614;15.072;2023-01-19T16:36:50;4.17;;;1.20;;
73779;SDS011;62093;37.614;15.072;2023-01-19T16:39:16;3.55;;;1.30;;
73779;SDS011;62093;37.614;15.072;2023-01-19T16:41:43;3.33;;;1.20;;
73779;SDS011;62093;37.614;15.072;2023-01-19T16:44:10;3.60;;;1.38;;
73779;SDS011;62093;37.614;15.072;2023-01-19T16:46:38;3.75;;;1.30;;